createdAt,value
2018-08-20T00:00:50.021Z,24.67
2018-08-20T00:04:14.552Z,24.45
2018-08-20T00:07:39.007Z,24.34
2018-08-20T00:11:03.531Z,24.69
2018-08-20T00:14:27.990Z,24.68
2018-08-20T00:17:52.440Z,24.68
2018-08-20T00:21:16.899Z,24.54
2018-08-20T00:24:41.340Z,24.53
2018-08-20T00:28:05.765Z,24.35
2018-08-20T00:31:30.227Z,24.29
2018-08-20T00:34:54.624Z,24.44
2018-08-20T00:38:19.088Z,24.58
2018-08-20T00:41:43.719Z,24.42
2018-08-20T00:45:08.815Z,24.40
2018-08-20T00:48:33.269Z,24.54
2018-08-20T00:51:57.717Z,24.32
2018-08-20T00:55:22.138Z,24.55
2018-08-20T00:58:46.539Z,24.60
2018-08-20T01:02:11.015Z,24.24
2018-08-20T01:05:35.447Z,24.05
2018-08-20T01:09:00.122Z,23.68
2018-08-20T01:12:24.731Z,23.95
2018-08-20T01:15:49.183Z,23.92
2018-08-20T01:19:13.604Z,24.04
2018-08-20T01:22:38.086Z,23.63
2018-08-20T01:26:02.606Z,23.83
2018-08-20T01:29:27.040Z,23.91
2018-08-20T01:32:51.962Z,23.66
2018-08-20T01:36:16.402Z,23.12
2018-08-20T01:39:40.863Z,23.35
2018-08-20T01:43:05.316Z,23.52
2018-08-20T01:46:29.810Z,23.16
2018-08-20T01:49:54.240Z,23.25
2018-08-20T01:53:18.693Z,23.23
2018-08-20T01:56:43.109Z,22.95
2018-08-20T02:00:07.569Z,22.93
2018-08-20T02:03:32.223Z,22.80
2018-08-20T02:06:56.629Z,22.72
2018-08-20T02:10:21.115Z,22.85
2018-08-20T02:13:45.657Z,22.70
2018-08-20T02:17:10.089Z,22.75
2018-08-20T02:20:34.575Z,22.92
2018-08-20T02:23:59.040Z,22.95
2018-08-20T02:27:23.485Z,22.88
2018-08-20T02:30:47.903Z,22.83
2018-08-20T02:34:12.508Z,22.78
2018-08-20T02:37:42.057Z,22.91
2018-08-20T02:41:06.673Z,22.81
2018-08-20T02:44:31.137Z,22.90
2018-08-20T02:47:55.576Z,23.04
2018-08-20T02:51:19.973Z,23.06
2018-08-20T02:54:44.389Z,23.09
2018-08-20T02:58:08.810Z,22.89
2018-08-20T03:01:33.251Z,23.08
2018-08-20T03:04:57.731Z,23.04
2018-08-20T03:08:22.192Z,23.17
2018-08-20T03:11:46.627Z,22.73
2018-08-20T03:15:11.823Z,22.74
2018-08-20T03:18:36.240Z,22.62
2018-08-20T03:22:00.660Z,22.45
2018-08-20T03:25:25.948Z,22.68
2018-08-20T03:28:50.357Z,22.96
2018-08-20T03:32:14.774Z,22.69
2018-08-20T03:35:39.198Z,22.65
2018-08-20T03:39:04.586Z,22.73
2018-08-20T03:42:29.023Z,22.64
2018-08-20T03:45:53.547Z,22.79
2018-08-20T03:49:18.079Z,22.73
2018-08-20T03:52:42.527Z,22.44
2018-08-20T03:56:07.153Z,22.40
2018-08-20T03:59:36.298Z,22.59
2018-08-20T04:03:00.720Z,22.83
2018-08-20T04:06:25.163Z,22.55
2018-08-20T04:09:49.568Z,22.65
2018-08-20T04:13:14.009Z,22.55
2018-08-20T04:16:38.441Z,22.56
2018-08-20T04:20:02.984Z,22.40
2018-08-20T04:23:27.453Z,22.48
2018-08-20T04:26:52.089Z,22.32
2018-08-20T04:30:16.527Z,22.29
2018-08-20T04:33:40.951Z,22.43
2018-08-20T04:37:05.431Z,22.33
2018-08-20T04:40:29.904Z,22.37
2018-08-20T04:43:54.531Z,22.28
2018-08-20T04:47:19.241Z,21.88
2018-08-20T04:50:43.766Z,22.20
2018-08-20T04:54:08.269Z,22.00
2018-08-20T04:57:32.672Z,22.33
2018-08-20T05:00:58.091Z,22.45
2018-08-20T05:04:22.553Z,22.02
2018-08-20T05:07:47.020Z,22.06
2018-08-20T05:11:11.603Z,22.25
2018-08-20T05:14:36.032Z,22.12
2018-08-20T05:18:00.631Z,22.30
2018-08-20T05:21:25.252Z,22.17
2018-08-20T05:24:49.690Z,22.34
2018-08-20T05:28:14.125Z,21.97
2018-08-20T05:31:38.553Z,22.32
2018-08-20T05:35:02.962Z,22.56
2018-08-20T05:38:27.467Z,22.17
2018-08-20T05:41:51.882Z,22.03
2018-08-20T05:45:16.306Z,22.27
2018-08-20T05:48:40.751Z,21.93
2018-08-20T05:52:05.376Z,22.32
2018-08-20T05:55:29.803Z,22.18
2018-08-20T05:58:54.206Z,22.19
2018-08-20T06:02:18.714Z,22.19
2018-08-20T06:05:43.171Z,21.77
2018-08-20T06:09:09.943Z,21.62
2018-08-20T06:12:34.746Z,21.90
2018-08-20T06:15:59.320Z,21.88
2018-08-20T06:19:23.809Z,21.93
2018-08-20T06:22:48.217Z,21.89
2018-08-20T06:26:12.758Z,21.81
2018-08-20T06:29:37.211Z,21.85
2018-08-20T06:33:01.694Z,21.83
2018-08-20T06:36:26.242Z,21.81
2018-08-20T06:39:50.728Z,21.80
2018-08-20T06:43:15.111Z,21.60
2018-08-20T06:46:39.573Z,21.71
2018-08-20T06:50:05.432Z,21.67
2018-08-20T06:53:29.817Z,21.84
2018-08-20T06:56:54.255Z,21.88
2018-08-20T07:00:25.282Z,22.01
2018-08-20T07:03:49.718Z,22.11
2018-08-20T07:07:14.184Z,22.14
2018-08-20T07:10:43.907Z,22.15
2018-08-20T07:14:08.370Z,22.23
2018-08-20T07:17:32.840Z,22.10
2018-08-20T07:20:57.540Z,22.21
2018-08-20T07:24:21.944Z,22.33
2018-08-20T07:27:46.384Z,22.39
2018-08-20T07:31:10.836Z,22.33
2018-08-20T07:34:35.288Z,22.38
2018-08-20T07:37:59.752Z,22.52
2018-08-20T07:41:24.561Z,22.30
2018-08-20T07:44:49.015Z,22.21
2018-08-20T07:48:13.457Z,22.31
2018-08-20T07:51:37.875Z,22.61
2018-08-20T07:55:02.295Z,22.51
2018-08-20T07:58:26.807Z,23.09
2018-08-20T08:01:51.394Z,22.97
2018-08-20T08:05:15.868Z,23.12
2018-08-20T08:08:40.377Z,23.13
2018-08-20T08:12:04.833Z,23.14
2018-08-20T08:15:29.314Z,22.93
2018-08-20T08:18:53.948Z,22.80
2018-08-20T08:22:18.419Z,22.89
2018-08-20T08:25:42.849Z,23.04
2018-08-20T08:29:07.352Z,23.24
2018-08-20T08:32:31.862Z,23.32
2018-08-20T08:35:56.376Z,23.30
2018-08-20T08:39:20.820Z,23.44
2018-08-20T08:42:45.385Z,23.68
2018-08-20T08:46:09.821Z,23.30
2018-08-20T08:49:34.259Z,23.63
2018-08-20T08:52:58.699Z,23.32
2018-08-20T08:56:23.163Z,23.71
2018-08-20T08:59:47.642Z,23.97
2018-08-20T09:03:12.107Z,23.89
2018-08-20T09:06:36.541Z,24.25
2018-08-20T09:10:01.004Z,23.78
2018-08-20T09:13:25.517Z,23.90
2018-08-20T09:16:49.936Z,23.96
2018-08-20T09:20:20.998Z,23.89
2018-08-20T09:23:45.447Z,23.88
2018-08-20T09:27:10.227Z,23.93
2018-08-20T09:30:34.677Z,24.12
2018-08-20T09:33:59.386Z,23.95
2018-08-20T09:37:23.790Z,23.67
2018-08-20T09:40:48.275Z,24.02
2018-08-20T09:44:12.750Z,24.02
2018-08-20T09:47:38.344Z,23.92
2018-08-20T09:51:02.800Z,24.57
2018-08-20T09:54:27.261Z,25.05
2018-08-20T09:57:51.706Z,24.92
2018-08-20T10:01:16.148Z,24.79
2018-08-20T10:04:40.565Z,25.08
2018-08-20T10:08:05.043Z,25.24
2018-08-20T10:11:29.486Z,25.41
2018-08-20T10:14:53.900Z,25.89
2018-08-20T10:18:18.368Z,26.23
2018-08-20T10:21:42.774Z,26.68
2018-08-20T10:25:07.660Z,26.36
2018-08-20T10:28:32.170Z,26.02
2018-08-20T10:31:56.649Z,26.67
2018-08-20T10:35:21.105Z,26.77
2018-08-20T10:38:45.550Z,26.33
2018-08-20T10:42:10.035Z,26.46
2018-08-20T10:45:39.814Z,26.82
2018-08-20T10:49:04.300Z,26.56
2018-08-20T10:52:28.807Z,26.99
2018-08-20T10:55:53.456Z,27.45
2018-08-20T10:59:17.847Z,27.28
2018-08-20T11:02:42.390Z,27.71
2018-08-20T11:06:06.868Z,27.45
2018-08-20T11:09:31.290Z,27.88
2018-08-20T11:12:55.739Z,27.91
2018-08-20T11:16:20.195Z,28.13
2018-08-20T11:19:44.602Z,28.18
2018-08-20T11:23:09.043Z,27.59
2018-08-20T11:26:33.482Z,28.24
2018-08-20T11:29:57.946Z,28.22
2018-08-20T11:33:22.430Z,27.86
2018-08-20T11:36:46.904Z,27.24
2018-08-20T11:40:17.825Z,27.24
2018-08-20T11:43:42.381Z,27.21
2018-08-20T11:47:06.842Z,26.91
2018-08-20T11:50:31.269Z,26.63
2018-08-20T11:53:55.669Z,26.65
2018-08-20T11:57:20.142Z,26.67
2018-08-20T12:00:44.575Z,26.41
2018-08-20T12:04:08.996Z,25.79
2018-08-20T12:07:33.423Z,25.62
2018-08-20T12:10:57.852Z,24.74
2018-08-20T12:14:22.324Z,24.60
2018-08-20T12:17:46.719Z,24.21
2018-08-20T12:21:11.497Z,23.80
2018-08-20T12:24:36.078Z,23.53
2018-08-20T12:28:00.523Z,23.18
2018-08-20T12:31:24.937Z,23.04
2018-08-20T12:34:49.503Z,23.08
2018-08-20T12:38:13.941Z,23.09
2018-08-20T12:41:38.397Z,23.40
2018-08-20T12:45:02.844Z,23.59
2018-08-20T12:48:27.297Z,23.63
2018-08-20T12:51:51.702Z,23.57
2018-08-20T12:55:16.118Z,23.78
2018-08-20T12:58:48.282Z,23.92
2018-08-20T13:02:12.751Z,23.91
2018-08-20T13:05:37.153Z,23.89
2018-08-20T13:09:02.143Z,23.91
2018-08-20T13:12:26.497Z,24.10
2018-08-20T13:15:51.015Z,23.96
2018-08-20T13:19:15.385Z,24.21
2018-08-20T13:22:39.812Z,24.22
2018-08-20T13:26:04.384Z,24.05
2018-08-20T13:29:28.832Z,24.49
2018-08-20T13:32:53.379Z,24.91
2018-08-20T13:36:17.812Z,25.43
2018-08-20T13:39:42.272Z,25.98
2018-08-20T13:43:07.115Z,26.46
2018-08-20T13:46:31.552Z,26.12
2018-08-20T13:50:02.225Z,26.32
2018-08-20T13:53:26.595Z,26.70
2018-08-20T13:56:51.023Z,27.02
2018-08-20T14:00:17.141Z,27.23
2018-08-20T14:03:41.544Z,27.32
2018-08-20T14:07:06.020Z,26.90
2018-08-20T14:10:30.447Z,26.90
2018-08-20T14:13:54.905Z,27.10
2018-08-20T14:17:19.346Z,27.09
2018-08-20T14:20:57.944Z,26.80
2018-08-20T14:24:22.399Z,27.13
2018-08-20T14:27:46.790Z,26.88
2018-08-20T14:31:11.238Z,27.40
2018-08-20T14:34:35.698Z,27.50
2018-08-20T14:38:00.136Z,27.26
2018-08-20T14:41:24.566Z,27.32
2018-08-20T14:44:48.978Z,26.91
2018-08-20T14:48:13.438Z,27.19
2018-08-20T14:51:37.930Z,27.28
2018-08-20T14:55:02.378Z,27.35
2018-08-20T14:58:26.809Z,27.45
2018-08-20T15:01:51.327Z,27.50
2018-08-20T15:05:15.729Z,27.86
2018-08-20T15:08:40.649Z,28.34
2018-08-20T15:12:05.519Z,28.07
2018-08-20T15:15:29.961Z,27.56
2018-08-20T15:18:54.381Z,27.58
2018-08-20T15:22:18.813Z,27.39
2018-08-20T15:25:43.247Z,27.35
2018-08-20T15:29:07.963Z,27.46
2018-08-20T15:32:32.468Z,27.04
2018-08-20T15:35:57.150Z,26.74
2018-08-20T15:39:21.605Z,26.96
2018-08-20T15:46:11.284Z,26.80
2018-08-20T15:49:35.608Z,26.92
2018-08-20T15:53:00.098Z,27.03
2018-08-20T15:56:24.581Z,26.70
2018-08-20T15:59:49.043Z,26.82
2018-08-20T16:03:13.454Z,26.74
2018-08-20T16:06:37.918Z,26.68
2018-08-20T16:10:02.423Z,26.54
2018-08-20T16:13:26.812Z,26.43
2018-08-20T16:16:51.265Z,26.22
2018-08-20T16:20:15.690Z,25.94
2018-08-20T16:23:40.143Z,26.11
2018-08-20T16:27:04.590Z,25.83
2018-08-20T16:30:29.035Z,25.95
2018-08-20T16:33:53.503Z,25.94
2018-08-20T16:37:17.950Z,25.99
2018-08-20T16:40:42.408Z,26.09
2018-08-20T16:44:07.472Z,26.28
2018-08-20T16:47:31.985Z,26.29
2018-08-20T16:50:56.411Z,26.34
2018-08-20T16:54:20.853Z,26.35
2018-08-20T16:57:45.298Z,26.76
2018-08-20T17:01:15.840Z,26.72
2018-08-20T17:04:41.601Z,26.68
2018-08-20T17:08:06.210Z,26.62
2018-08-20T17:11:30.610Z,26.44
2018-08-20T17:14:55.100Z,26.42
2018-08-20T17:18:19.531Z,26.54
2018-08-20T17:21:43.919Z,26.48
2018-08-20T17:25:14.057Z,26.30
2018-08-20T17:28:39.524Z,26.10
2018-08-20T17:32:05.681Z,26.09
2018-08-20T17:35:30.294Z,26.01
2018-08-20T17:38:54.698Z,25.86
2018-08-20T17:42:19.125Z,25.87
2018-08-20T17:45:43.511Z,25.81
2018-08-20T17:49:10.849Z,25.89
2018-08-20T17:52:39.207Z,25.90
2018-08-20T17:56:03.641Z,25.39
2018-08-20T17:59:28.104Z,25.42
2018-08-20T18:02:52.571Z,25.14
2018-08-20T18:06:17.029Z,25.39
2018-08-20T18:09:41.422Z,25.64
2018-08-20T18:13:05.894Z,25.50
2018-08-20T18:16:30.815Z,25.39
2018-08-20T18:19:55.518Z,25.29
2018-08-20T18:23:20.220Z,25.20
2018-08-20T18:26:50.880Z,25.03
2018-08-20T18:30:17.687Z,25.10
2018-08-20T18:33:44.059Z,24.95
2018-08-20T18:37:08.540Z,24.92
2018-08-20T18:40:33.298Z,24.90
2018-08-20T18:43:57.945Z,24.81
2018-08-20T18:47:22.737Z,24.73
2018-08-20T18:50:47.717Z,24.64
2018-08-20T18:54:12.597Z,24.76
2018-08-20T18:57:39.238Z,24.66
2018-08-20T19:01:03.839Z,24.62
2018-08-20T19:04:38.736Z,24.52
2018-08-20T19:08:06.723Z,24.45
2018-08-20T19:11:31.349Z,24.33
2018-08-20T19:14:56.181Z,24.26
2018-08-20T19:18:24.421Z,24.34
2018-08-20T19:21:48.921Z,24.26
2018-08-20T19:25:13.659Z,24.20
2018-08-20T19:28:38.275Z,24.23
2018-08-20T19:32:03.912Z,24.18
2018-08-20T19:35:29.005Z,24.22
2018-08-20T19:38:54.304Z,24.10
2018-08-20T19:42:23.919Z,24.16
2018-08-20T19:45:49.737Z,24.19
2018-08-20T19:49:15.567Z,24.08
2018-08-20T19:52:42.523Z,24.05
2018-08-20T19:56:14.673Z,24.01
2018-08-20T19:59:40.043Z,24.07
2018-08-20T20:03:05.069Z,23.98
2018-08-20T20:06:30.876Z,23.99
2018-08-20T20:09:55.386Z,24.05
2018-08-20T20:13:20.650Z,23.94
2018-08-20T20:16:51.566Z,23.86
2018-08-20T20:20:16.006Z,23.95
2018-08-20T20:23:40.468Z,23.81
2018-08-20T20:27:05.064Z,23.93
2018-08-20T20:30:29.613Z,23.91
2018-08-20T20:33:54.444Z,23.84
2018-08-20T20:37:18.870Z,23.91
2018-08-20T20:40:43.585Z,23.88
2018-08-20T20:44:13.443Z,23.84
2018-08-20T20:47:37.953Z,23.82
2018-08-20T20:51:02.477Z,23.83
2018-08-20T20:54:27.691Z,23.87
2018-08-20T20:57:52.125Z,23.84
2018-08-20T21:01:16.615Z,23.83
2018-08-20T21:04:40.992Z,23.71
2018-08-20T21:08:05.443Z,23.74
2018-08-20T21:11:29.912Z,23.71
2018-08-20T21:14:54.317Z,23.69
2018-08-20T21:18:18.755Z,23.69
2018-08-20T21:21:43.213Z,23.58
2018-08-20T21:25:09.179Z,23.67
2018-08-20T21:28:39.552Z,23.64
2018-08-20T21:32:04.028Z,23.54
2018-08-20T21:35:28.465Z,23.54
2018-08-20T21:38:52.968Z,23.72
2018-08-20T21:42:17.427Z,23.58
2018-08-20T21:45:41.803Z,23.47
2018-08-20T21:49:07.042Z,23.51
2018-08-20T21:52:31.478Z,23.56
2018-08-20T21:55:56.132Z,23.44
2018-08-20T21:59:20.556Z,23.41
2018-08-20T22:02:48.801Z,23.38
2018-08-20T22:06:13.784Z,23.37
2018-08-20T22:09:38.268Z,23.48
2018-08-20T22:13:02.731Z,23.35
2018-08-20T22:16:27.217Z,23.45
2018-08-20T22:19:51.695Z,23.26
2018-08-20T22:23:25.273Z,23.25
2018-08-20T22:27:12.671Z,23.26
2018-08-20T22:30:38.886Z,23.15
2018-08-20T22:34:06.405Z,23.15
2018-08-20T22:37:30.801Z,23.06
2018-08-20T22:40:55.253Z,23.12
2018-08-20T22:44:19.713Z,23.11
2018-08-20T22:47:44.678Z,23.03
2018-08-20T22:51:12.184Z,23.02
2018-08-20T22:54:36.616Z,23.04
2018-08-20T22:58:11.496Z,23.03
2018-08-20T23:01:35.951Z,23.14
2018-08-20T23:05:02.320Z,23.14
2018-08-20T23:08:26.751Z,23.12
2018-08-20T23:11:51.178Z,23.05
2018-08-20T23:15:15.611Z,23.02
2018-08-20T23:18:40.041Z,23.04
2018-08-20T23:22:04.487Z,22.99
2018-08-20T23:25:28.981Z,22.98
2018-08-20T23:28:53.407Z,23.07
2018-08-20T23:32:17.804Z,22.94
2018-08-20T23:35:42.196Z,22.96
2018-08-20T23:39:09.697Z,22.90
2018-08-20T23:42:34.147Z,22.83
2018-08-20T23:45:58.677Z,22.69
2018-08-20T23:49:23.111Z,22.61
2018-08-20T23:52:47.545Z,22.67
2018-08-20T23:56:11.984Z,22.68
2018-08-20T23:59:36.449Z,22.65
